createdAt,value
2023-01-01T00:01:45.845Z,198.98
2023-01-01T00:04:14.700Z,184.07
2023-01-01T00:06:42.861Z,185.93
2023-01-01T00:09:28.120Z,192.70
2023-01-01T00:11:54.901Z,190.20
2023-01-01T00:14:22.027Z,186.57
2023-01-01T00:16:48.882Z,204.70
2023-01-01T00:19:15.728Z,186.73
2023-01-01T00:21:42.800Z,178.98
2023-01-01T00:24:09.676Z,195.32
2023-01-01T00:26:36.382Z,214.70
2023-01-01T00:29:04.130Z,230.52
2023-01-01T00:31:31.629Z,222.98
2023-01-01T00:33:58.812Z,203.10
2023-01-01T00:36:27.386Z,201.10
2023-01-01T00:38:54.400Z,199.75
2023-01-01T00:41:21.807Z,202.48
2023-01-01T00:43:48.552Z,190.55
2023-01-01T00:46:15.482Z,193.45
2023-01-01T00:48:42.484Z,184.60
2023-01-01T00:51:09.267Z,189.63
2023-01-01T00:53:36.896Z,179.23
2023-01-01T00:56:04.489Z,182.85
2023-01-01T00:58:31.196Z,165.30
2023-01-01T01:00:58.053Z,155.82
2023-01-01T01:03:30.818Z,165.95
2023-01-01T01:05:59.926Z,167.18
2023-01-01T01:08:30.991Z,166.35
2023-01-01T01:11:08.675Z,160.27
2023-01-01T01:13:36.024Z,161.45
2023-01-01T01:16:09.315Z,163.95
2023-01-01T01:18:36.596Z,165.18
2023-01-01T01:21:03.641Z,161.95
2023-01-01T01:23:30.411Z,155.48
2023-01-01T01:26:08.075Z,179.25
2023-01-01T01:28:34.932Z,159.98
2023-01-01T01:31:02.091Z,160.65
2023-01-01T01:33:28.813Z,157.07
2023-01-01T01:35:55.683Z,169.77
2023-01-01T01:38:22.529Z,164.45
2023-01-01T01:40:49.569Z,159.15
2023-01-01T01:43:24.999Z,159.65
2023-01-01T01:45:59.049Z,154.25
2023-01-01T01:48:25.814Z,161.52
2023-01-01T01:50:55.768Z,153.57
2023-01-01T01:53:29.703Z,163.73
2023-01-01T01:56:01.339Z,168.05
2023-01-01T01:58:32.112Z,148.45
2023-01-01T02:01:02.010Z,152.52
2023-01-01T02:03:53.709Z,162.20
2023-01-01T02:06:21.330Z,154.88
2023-01-01T02:08:50.140Z,161.60
2023-01-01T02:11:21.804Z,155.95
2023-01-01T02:13:49.705Z,158.10
2023-01-01T02:16:42.586Z,156.57
2023-01-01T02:19:21.072Z,158.73
2023-01-01T02:22:11.928Z,152.50
2023-01-01T02:25:04.773Z,139.13
2023-01-01T02:27:54.812Z,158.95
2023-01-01T02:30:21.560Z,149.25
2023-01-01T02:32:57.734Z,148.02
2023-01-01T02:38:32.782Z,141.80
2023-01-01T02:41:10.730Z,150.27
2023-01-01T02:43:38.319Z,142.68
2023-01-01T02:46:10.239Z,165.00
2023-01-01T02:48:47.143Z,147.73
2023-01-01T02:51:23.091Z,153.98
2023-01-01T02:53:58.783Z,150.75
2023-01-01T02:57:04.484Z,153.25
2023-01-01T03:00:05.895Z,159.13
2023-01-01T03:02:51.891Z,151.55
2023-01-01T03:05:37.127Z,152.15
2023-01-01T03:08:17.771Z,149.85
2023-01-01T03:10:55.570Z,151.57
2023-01-01T03:13:44.504Z,160.00
2023-01-01T03:16:15.052Z,147.40
2023-01-01T03:18:50.530Z,150.93
2023-01-01T03:21:23.743Z,153.32
2023-01-01T03:23:54.854Z,149.13
2023-01-01T03:26:27.548Z,163.05
2023-01-01T03:28:57.727Z,155.68
2023-01-01T03:31:26.673Z,151.27
2023-01-01T03:34:01.271Z,149.10
2023-01-01T03:36:35.377Z,150.40
2023-01-01T03:39:11.622Z,143.45
2023-01-01T03:46:49.075Z,140.02
2023-01-01T03:49:16.734Z,159.50
2023-01-01T03:51:52.668Z,157.75
2023-01-01T03:54:37.951Z,146.98
2023-01-01T03:57:10.839Z,142.45
2023-01-01T03:59:50.157Z,142.38
2023-01-01T04:02:20.486Z,147.82
2023-01-01T04:04:49.637Z,147.85
2023-01-01T04:07:16.742Z,144.13
2023-01-01T04:09:50.266Z,160.50
2023-01-01T04:12:18.162Z,149.23
2023-01-01T04:14:44.898Z,151.88
2023-01-01T04:17:12.581Z,155.15
2023-01-01T04:19:39.453Z,146.30
2023-01-01T04:22:06.366Z,147.23
2023-01-01T04:24:33.119Z,147.18
2023-01-01T04:27:00.151Z,144.70
2023-01-01T04:29:26.937Z,148.15
2023-01-01T04:31:53.676Z,146.77
2023-01-01T04:34:20.508Z,164.25
2023-01-01T04:36:47.208Z,159.70
2023-01-01T04:39:13.908Z,150.68
2023-01-01T04:41:40.680Z,148.05
2023-01-01T04:44:07.473Z,150.57
2023-01-01T04:46:34.251Z,155.93
2023-01-01T04:49:01.008Z,157.40
2023-01-01T04:51:27.715Z,142.48
2023-01-01T04:53:54.403Z,151.23
2023-01-01T04:56:22.562Z,152.35
2023-01-01T04:58:50.100Z,155.85
2023-01-01T05:01:30.188Z,154.93
2023-01-01T05:03:58.777Z,153.75
2023-01-01T05:06:26.506Z,165.65
2023-01-01T05:08:55.149Z,160.15
2023-01-01T05:11:27.732Z,161.30
2023-01-01T05:13:59.528Z,165.18
2023-01-01T05:16:29.125Z,174.13
2023-01-01T05:18:56.748Z,158.30
2023-01-01T05:21:32.162Z,159.15
2023-01-01T05:24:08.348Z,171.77
2023-01-01T05:26:37.760Z,160.43
2023-01-01T05:29:08.945Z,163.52
2023-01-01T05:31:40.408Z,167.40
2023-01-01T05:36:38.385Z,172.88
2023-01-01T05:39:10.102Z,162.15
2023-01-01T05:41:37.079Z,173.18
2023-01-01T05:44:07.329Z,167.80
2023-01-01T05:46:34.748Z,162.40
2023-01-01T05:49:01.838Z,162.88
2023-01-01T05:51:29.947Z,174.10
2023-01-01T05:53:57.855Z,162.65
2023-01-01T05:56:24.973Z,163.75
2023-01-01T05:58:51.760Z,160.43
2023-01-01T06:01:30.387Z,172.15
2023-01-01T06:03:58.707Z,159.63
2023-01-01T06:06:28.910Z,166.50
2023-01-01T06:08:59.072Z,161.85
2023-01-01T06:11:26.790Z,166.80
2023-01-01T06:13:55.797Z,164.43
2023-01-01T06:16:22.866Z,164.50
2023-01-01T06:18:49.668Z,170.43
2023-01-01T06:21:22.314Z,166.18
2023-01-01T06:23:49.568Z,166.98
2023-01-01T06:26:25.321Z,162.45
2023-01-01T06:28:52.288Z,165.82
2023-01-01T06:31:21.130Z,210.95
2023-01-01T06:33:48.618Z,169.55
2023-01-01T06:36:17.284Z,168.95
2023-01-01T06:38:47.217Z,172.07
2023-01-01T06:41:17.049Z,175.43
2023-01-01T06:43:43.901Z,166.00
2023-01-01T06:46:20.436Z,175.65
2023-01-01T06:48:49.276Z,167.30
2023-01-01T06:51:21.032Z,172.00
2023-01-01T06:53:49.439Z,174.98
2023-01-01T06:56:16.310Z,171.80
2023-01-01T06:58:43.512Z,170.20
2023-01-01T07:01:19.446Z,173.07
2023-01-01T07:03:58.076Z,166.98
2023-01-01T07:06:25.983Z,171.50
2023-01-01T07:08:52.799Z,165.20
2023-01-01T07:11:19.931Z,163.35
2023-01-01T07:13:46.973Z,170.60
2023-01-01T07:16:14.426Z,168.77
2023-01-01T07:18:41.733Z,169.65
2023-01-01T07:21:29.650Z,164.13
2023-01-01T07:23:58.357Z,166.23
2023-01-01T07:26:29.458Z,168.10
2023-01-01T07:29:02.842Z,159.38
2023-01-01T07:31:33.032Z,163.32
2023-01-01T07:33:59.775Z,166.80
2023-01-01T07:36:26.581Z,162.38
2023-01-01T07:38:53.468Z,170.30
2023-01-01T07:41:20.265Z,174.82
2023-01-01T07:43:47.055Z,162.32
2023-01-01T07:46:16.322Z,168.55
2023-01-01T07:48:43.166Z,173.35
2023-01-01T07:51:09.920Z,163.77
2023-01-01T07:53:36.859Z,172.73
2023-01-01T07:56:03.772Z,157.13
2023-01-01T07:58:31.214Z,159.85
2023-01-01T08:00:58.102Z,166.32
2023-01-01T08:03:24.960Z,161.02
2023-01-01T08:05:52.400Z,171.80
2023-01-01T08:08:19.122Z,161.85
2023-01-01T08:10:48.588Z,164.27
2023-01-01T08:13:15.280Z,173.45
2023-01-01T08:15:42.096Z,164.02
2023-01-01T08:18:09.557Z,166.95
2023-01-01T08:20:36.335Z,161.57
2023-01-01T08:23:07.165Z,168.35
2023-01-01T08:25:35.071Z,168.93
2023-01-01T08:28:01.795Z,170.98
2023-01-01T08:30:28.820Z,166.48
2023-01-01T08:32:55.586Z,161.23
2023-01-01T08:35:22.508Z,159.73
2023-01-01T08:37:49.276Z,154.75
2023-01-01T08:40:16.039Z,161.02
2023-01-01T08:42:42.876Z,156.18
2023-01-01T08:45:10.521Z,172.55
2023-01-01T08:47:37.368Z,169.73
2023-01-01T08:50:05.154Z,155.23
2023-01-01T08:52:32.146Z,167.48
2023-01-01T08:54:59.072Z,161.63
2023-01-01T08:57:25.854Z,157.20
2023-01-01T08:59:52.532Z,162.95
2023-01-01T09:02:19.463Z,168.73
2023-01-01T09:04:46.268Z,167.15
2023-01-01T09:07:13.054Z,166.85
2023-01-01T09:09:39.898Z,168.30
2023-01-01T09:12:08.446Z,163.70
2023-01-01T09:14:35.444Z,159.23
2023-01-01T09:17:02.499Z,168.38
2023-01-01T09:19:29.285Z,157.75
2023-01-01T09:21:56.092Z,163.00
2023-01-01T09:24:23.278Z,173.65
2023-01-01T09:26:50.395Z,169.85
2023-01-01T09:29:18.829Z,178.38
2023-01-01T09:31:45.860Z,164.18
2023-01-01T09:34:12.934Z,159.77
2023-01-01T09:36:39.971Z,164.15
2023-01-01T09:39:06.758Z,173.88
2023-01-01T09:41:48.749Z,181.82
2023-01-01T09:44:21.610Z,172.95
2023-01-01T09:46:49.161Z,166.93
2023-01-01T09:49:22.169Z,168.15
2023-01-01T09:51:58.148Z,175.13
2023-01-01T09:54:40.768Z,164.48
2023-01-01T09:57:17.969Z,169.13
2023-01-01T09:59:46.836Z,162.48
2023-01-01T10:02:35.305Z,170.23
2023-01-01T10:05:20.424Z,180.80
2023-01-01T10:08:00.099Z,164.18
2023-01-01T10:10:42.529Z,180.68
2023-01-01T10:13:18.387Z,174.82
2023-01-01T10:15:56.969Z,171.30
2023-01-01T10:18:33.523Z,174.68
2023-01-01T10:21:12.547Z,172.73
2023-01-01T10:23:44.920Z,165.45
2023-01-01T10:26:22.705Z,165.43
2023-01-01T10:29:04.696Z,172.70
2023-01-01T10:31:34.999Z,171.15
2023-01-01T10:34:26.500Z,161.98
2023-01-01T10:36:56.093Z,176.27
2023-01-01T10:39:24.087Z,172.52
2023-01-01T10:41:51.542Z,176.82
2023-01-01T10:44:31.671Z,178.68
2023-01-01T10:47:01.725Z,172.73
2023-01-01T10:49:28.466Z,173.27
2023-01-01T10:51:55.513Z,181.18
2023-01-01T10:54:41.634Z,168.23
2023-01-01T10:57:17.902Z,168.40
2023-01-01T10:59:50.054Z,172.60
2023-01-01T11:02:26.012Z,179.73
2023-01-01T11:05:21.183Z,173.23
2023-01-01T11:07:49.046Z,180.85
2023-01-01T11:10:22.697Z,171.65
2023-01-01T11:13:07.006Z,176.95
2023-01-01T11:15:42.710Z,175.20
2023-01-01T11:18:22.087Z,178.77
2023-01-01T11:20:55.726Z,187.27
2023-01-01T11:23:37.253Z,175.70
2023-01-01T11:26:20.601Z,177.55
2023-01-01T11:29:03.112Z,183.73
2023-01-01T11:31:38.923Z,187.05
2023-01-01T11:34:32.386Z,184.25
2023-01-01T11:37:34.038Z,177.27
2023-01-01T11:40:02.582Z,180.48
2023-01-01T11:42:34.000Z,183.30
2023-01-01T11:45:03.605Z,189.45
2023-01-01T11:47:30.453Z,186.48
2023-01-01T11:50:03.165Z,190.10
2023-01-01T11:52:37.520Z,185.30
2023-01-01T11:55:14.894Z,184.57
2023-01-01T11:57:50.507Z,187.32
2023-01-01T12:00:17.458Z,193.88
2023-01-01T12:02:52.449Z,188.18
2023-01-01T12:05:40.470Z,182.37
2023-01-01T12:08:11.508Z,187.48
2023-01-01T12:10:49.331Z,181.73
2023-01-01T12:13:19.873Z,180.85
2023-01-01T12:15:56.841Z,190.70
2023-01-01T12:18:52.786Z,192.32
2023-01-01T12:21:25.926Z,186.38
2023-01-01T12:23:52.856Z,184.60
2023-01-01T12:26:22.755Z,181.43
2023-01-01T12:29:31.310Z,185.73
2023-01-01T12:32:00.687Z,179.98
2023-01-01T12:34:47.115Z,181.23
2023-01-01T12:37:32.248Z,180.70
2023-01-01T12:40:36.065Z,184.80
2023-01-01T12:43:05.857Z,182.38
2023-01-01T12:45:44.876Z,187.05
2023-01-01T12:48:29.959Z,188.35
2023-01-01T12:51:05.818Z,187.82
2023-01-01T12:56:22.434Z,185.48
2023-01-01T12:58:58.827Z,187.38
2023-01-01T13:04:10.812Z,187.68
2023-01-01T13:07:06.542Z,182.52
2023-01-01T13:09:36.526Z,186.15
2023-01-01T13:12:19.249Z,183.50
2023-01-01T13:14:47.841Z,186.85
2023-01-01T13:17:24.588Z,185.20
2023-01-01T13:20:00.503Z,188.13
2023-01-01T13:25:21.860Z,182.35
2023-01-01T13:27:57.881Z,184.25
2023-01-01T13:30:41.435Z,182.45
2023-01-01T13:33:20.180Z,182.75
2023-01-01T13:36:12.914Z,186.90
2023-01-01T13:38:56.613Z,182.20
2023-01-01T13:41:47.317Z,181.68
2023-01-01T13:44:17.073Z,170.90
2023-01-01T13:46:43.988Z,174.63
2023-01-01T13:49:32.704Z,175.95
2023-01-01T13:52:17.160Z,182.63
2023-01-01T13:55:02.596Z,179.18
2023-01-01T13:58:00.864Z,184.07
2023-01-01T14:00:30.599Z,181.35
2023-01-01T14:03:03.557Z,183.52
2023-01-01T14:05:48.793Z,178.10
2023-01-01T14:08:36.378Z,181.88
2023-01-01T14:11:20.736Z,181.85
2023-01-01T14:13:48.189Z,188.35
2023-01-01T14:16:16.187Z,187.43
2023-01-01T14:18:53.606Z,182.57
2023-01-01T14:21:24.374Z,183.68
2023-01-01T14:24:06.509Z,178.57
2023-01-01T14:26:37.616Z,186.98
2023-01-01T14:29:09.853Z,182.77
2023-01-01T14:31:43.723Z,183.32
2023-01-01T14:34:33.106Z,179.40
2023-01-01T14:37:02.163Z,183.57
2023-01-01T14:39:31.963Z,181.52
2023-01-01T14:42:05.192Z,181.98
2023-01-01T14:44:50.966Z,189.50
2023-01-01T14:47:27.954Z,187.27
2023-01-01T14:50:03.303Z,186.82
2023-01-01T14:52:31.453Z,183.15
2023-01-01T14:55:00.334Z,187.20
2023-01-01T14:57:30.442Z,179.98
2023-01-01T14:59:59.880Z,179.90
2023-01-01T15:02:30.420Z,180.85
2023-01-01T15:04:59.164Z,189.70
2023-01-01T15:07:31.176Z,184.40
2023-01-01T15:10:01.774Z,182.13
2023-01-01T15:12:29.635Z,183.73
2023-01-01T15:14:58.305Z,182.50
2023-01-01T15:17:26.621Z,189.07
2023-01-01T15:20:06.231Z,181.82
2023-01-01T15:22:39.200Z,178.07
2023-01-01T15:25:12.859Z,179.10
2023-01-01T15:27:39.594Z,179.20
2023-01-01T15:30:13.497Z,185.60
2023-01-01T15:32:41.100Z,181.63
2023-01-01T15:35:24.892Z,182.95
2023-01-01T15:38:15.818Z,185.75
2023-01-01T15:40:49.422Z,188.00
2023-01-01T15:43:25.625Z,191.10
2023-01-01T15:46:26.104Z,199.52
2023-01-01T15:48:55.663Z,187.77
2023-01-01T15:51:29.768Z,190.68
2023-01-01T15:54:04.833Z,189.77
2023-01-01T15:56:33.902Z,186.05
2023-01-01T15:59:08.667Z,192.07
2023-01-01T16:01:39.738Z,199.35
2023-01-01T16:04:22.103Z,189.52
2023-01-01T16:06:54.687Z,190.18
2023-01-01T16:09:22.497Z,188.43
2023-01-01T16:11:57.404Z,193.38
2023-01-01T16:14:24.279Z,183.43
2023-01-01T16:16:57.989Z,191.20
2023-01-01T16:19:25.199Z,189.52
2023-01-01T16:21:51.994Z,186.77
2023-01-01T16:24:19.796Z,196.10
2023-01-01T16:26:47.303Z,197.27
2023-01-01T16:29:14.703Z,190.23
2023-01-01T16:31:42.776Z,184.40
2023-01-01T16:34:14.581Z,185.82
2023-01-01T16:36:42.487Z,182.90
2023-01-01T16:39:09.207Z,187.77
2023-01-01T16:41:36.520Z,182.73
2023-01-01T16:44:03.248Z,177.20
2023-01-01T16:46:32.112Z,179.55
2023-01-01T16:48:59.422Z,180.13
2023-01-01T16:51:29.754Z,175.57
2023-01-01T16:53:57.641Z,184.75
2023-01-01T16:56:24.462Z,195.05
2023-01-01T16:58:55.334Z,187.68
2023-01-01T17:01:27.023Z,178.55
2023-01-01T17:03:53.926Z,184.27
2023-01-01T17:06:20.791Z,180.63
2023-01-01T17:08:47.594Z,183.48
2023-01-01T17:11:16.965Z,191.27
2023-01-01T17:13:46.015Z,178.30
2023-01-01T17:16:21.398Z,187.52
2023-01-01T17:21:40.318Z,183.00
2023-01-01T17:24:07.367Z,194.57
2023-01-01T17:26:34.594Z,185.25
2023-01-01T17:29:02.979Z,188.63
2023-01-01T17:31:30.245Z,192.90
2023-01-01T17:33:57.089Z,196.05
2023-01-01T17:36:24.360Z,197.50
2023-01-01T17:38:51.087Z,186.20
2023-01-01T17:41:18.212Z,185.57
2023-01-01T17:43:48.693Z,188.63
2023-01-01T17:46:18.060Z,183.13
2023-01-01T17:48:45.466Z,200.85
2023-01-01T17:51:13.928Z,187.77
2023-01-01T17:53:41.460Z,199.38
2023-01-01T17:56:12.305Z,194.48
2023-01-01T17:58:40.150Z,189.18
2023-01-01T18:01:13.060Z,188.13
2023-01-01T18:03:41.209Z,196.82
2023-01-01T18:06:08.481Z,186.20
2023-01-01T18:08:35.574Z,185.07
2023-01-01T18:11:02.269Z,195.45
2023-01-01T18:13:29.094Z,188.65
2023-01-01T18:16:09.527Z,187.45
2023-01-01T18:18:40.457Z,190.48
2023-01-01T18:21:19.549Z,195.98
2023-01-01T18:23:47.123Z,190.77
2023-01-01T18:26:13.810Z,185.35
2023-01-01T18:28:40.950Z,188.70
2023-01-01T18:31:17.274Z,196.88
2023-01-01T18:33:44.243Z,195.93
2023-01-01T18:36:15.790Z,193.13
2023-01-01T18:38:48.585Z,194.13
2023-01-01T18:41:18.216Z,202.38
2023-01-01T18:43:44.932Z,201.63
2023-01-01T18:46:12.024Z,202.60
2023-01-01T18:48:38.844Z,209.30
2023-01-01T18:51:15.062Z,196.75
2023-01-01T18:58:43.976Z,215.10
2023-01-01T19:01:17.050Z,213.93
2023-01-01T19:03:49.454Z,204.43
2023-01-01T19:06:22.422Z,200.57
2023-01-01T19:08:50.764Z,196.68
2023-01-01T19:11:22.011Z,195.30
2023-01-01T19:13:49.925Z,196.48
2023-01-01T19:16:35.100Z,193.45
2023-01-01T19:19:15.156Z,201.27
2023-01-01T19:21:47.919Z,207.52
2023-01-01T19:24:19.511Z,218.57
2023-01-01T19:26:46.721Z,202.65
2023-01-01T19:29:20.784Z,204.07
2023-01-01T19:31:53.415Z,206.40
2023-01-01T19:34:20.898Z,203.63
2023-01-01T19:36:48.156Z,207.07
2023-01-01T19:39:15.997Z,204.10
2023-01-01T19:41:43.048Z,209.57
2023-01-01T19:44:10.612Z,206.45
2023-01-01T19:46:39.200Z,199.75
2023-01-01T19:49:08.842Z,198.13
2023-01-01T19:51:35.606Z,194.50
2023-01-01T19:54:02.658Z,197.57
2023-01-01T19:56:29.394Z,197.55
2023-01-01T19:58:56.080Z,190.10
2023-01-01T20:01:22.857Z,195.32
2023-01-01T20:03:55.237Z,204.48
2023-01-01T20:06:23.206Z,192.80
2023-01-01T20:08:52.955Z,203.73
2023-01-01T20:11:23.356Z,199.73
2023-01-01T20:13:50.154Z,197.82
2023-01-01T20:16:16.895Z,195.80
2023-01-01T20:18:43.713Z,197.02
2023-01-01T20:21:33.463Z,199.48
2023-01-01T20:24:00.184Z,189.20
2023-01-01T20:26:26.920Z,199.00
2023-01-01T20:29:12.243Z,211.80
2023-01-01T20:31:39.522Z,206.57
2023-01-01T20:34:06.255Z,198.77
2023-01-01T20:36:51.428Z,215.50
2023-01-01T20:39:18.136Z,213.63
2023-01-01T20:41:44.889Z,205.38
2023-01-01T20:44:11.675Z,211.50
2023-01-01T20:46:38.535Z,205.30
2023-01-01T20:49:05.740Z,195.32
2023-01-01T20:51:32.850Z,202.50
2023-01-01T20:53:59.980Z,212.90
2023-01-01T20:56:26.720Z,200.98
2023-01-01T20:58:59.500Z,210.23
2023-01-01T21:01:32.227Z,194.93
2023-01-01T21:03:59.050Z,199.55
2023-01-01T21:06:26.072Z,199.07
2023-01-01T21:08:53.210Z,203.23
2023-01-01T21:11:20.232Z,207.23
2023-01-01T21:13:47.906Z,208.13
2023-01-01T21:16:19.143Z,210.60
2023-01-01T21:18:47.091Z,225.57
2023-01-01T21:21:26.531Z,215.68
2023-01-01T21:23:57.575Z,204.13
2023-01-01T21:26:31.894Z,208.35
2023-01-01T21:29:20.092Z,203.73
2023-01-01T21:31:50.808Z,206.95
2023-01-01T21:34:32.222Z,207.32
2023-01-01T21:37:11.751Z,203.52
2023-01-01T21:39:38.548Z,200.48
2023-01-01T21:42:24.596Z,200.30
2023-01-01T21:44:57.753Z,194.73
2023-01-01T21:47:26.160Z,197.98
2023-01-01T21:49:56.123Z,205.00
2023-01-01T21:52:25.138Z,211.82
2023-01-01T21:54:53.057Z,212.07
2023-01-01T21:57:23.585Z,206.50
2023-01-01T21:59:51.959Z,201.82
2023-01-01T22:02:39.536Z,202.20
2023-01-01T22:05:30.497Z,205.45
2023-01-01T22:07:59.152Z,207.43
2023-01-01T22:10:34.413Z,215.15
2023-01-01T22:13:01.856Z,198.15
2023-01-01T22:15:35.957Z,199.90
2023-01-01T22:18:25.760Z,199.82
2023-01-01T22:20:52.997Z,206.48
2023-01-01T22:23:20.044Z,202.75
2023-01-01T22:25:47.837Z,203.70
2023-01-01T22:28:25.082Z,187.55
2023-01-01T22:30:55.413Z,199.10
2023-01-01T22:33:38.254Z,197.65
2023-01-01T22:36:29.235Z,189.13
2023-01-01T22:39:04.584Z,186.30
2023-01-01T22:41:31.274Z,181.57
2023-01-01T22:44:03.679Z,185.32
2023-01-01T22:46:39.965Z,183.95
2023-01-01T22:51:44.504Z,190.43
2023-01-01T22:54:11.235Z,186.45
2023-01-01T22:56:37.994Z,187.02
2023-01-01T22:59:04.781Z,183.77
2023-01-01T23:01:31.549Z,195.82
2023-01-01T23:03:58.440Z,190.65
2023-01-01T23:06:25.716Z,199.75
2023-01-01T23:08:53.631Z,191.90
2023-01-01T23:11:20.806Z,198.88
2023-01-01T23:14:07.619Z,195.00
2023-01-01T23:16:34.918Z,192.05
2023-01-01T23:19:02.230Z,183.70
2023-01-01T23:21:31.079Z,189.27
2023-01-01T23:24:00.511Z,194.55
2023-01-01T23:26:27.709Z,183.52
2023-01-01T23:28:55.100Z,192.73
2023-01-01T23:31:26.096Z,184.68
2023-01-01T23:33:54.925Z,182.48
2023-01-01T23:36:23.036Z,192.52
2023-01-01T23:38:49.820Z,188.80
2023-01-01T23:41:16.590Z,181.95
2023-01-01T23:43:44.116Z,189.70
2023-01-01T23:46:13.172Z,177.35
2023-01-01T23:48:47.902Z,186.43
2023-01-01T23:51:15.292Z,179.95
2023-01-01T23:53:42.053Z,183.63
2023-01-01T23:56:08.757Z,187.88
2023-01-01T23:58:35.426Z,178.52
